createdAt,value
2018-08-28T00:00:23.038Z,13.50
2018-08-28T00:01:02.374Z,13.60
2018-08-28T00:01:36.200Z,13.50
2018-08-28T00:02:10.426Z,13.50
2018-08-28T00:02:44.402Z,13.50
2018-08-28T00:03:18.312Z,13.50
2018-08-28T00:03:52.998Z,13.50
2018-08-28T00:04:26.854Z,13.50
2018-08-28T00:05:02.744Z,13.50
2018-08-28T00:05:36.612Z,13.50
2018-08-28T00:06:10.791Z,13.50
2018-08-28T00:06:44.625Z,13.50
2018-08-28T00:07:18.486Z,13.50
2018-08-28T00:07:52.327Z,13.50
2018-08-28T00:08:26.512Z,13.50
2018-08-28T00:09:00.415Z,13.50
2018-08-28T00:09:34.271Z,13.50
2018-08-28T00:10:08.140Z,13.50
2018-08-28T00:10:41.998Z,13.50
2018-08-28T00:11:15.980Z,13.50
2018-08-28T00:11:49.858Z,13.50
2018-08-28T00:12:24.094Z,13.50
2018-08-28T00:12:58.754Z,13.50
2018-08-28T00:13:32.764Z,13.50
2018-08-28T00:14:07.007Z,13.50
2018-08-28T00:14:41.264Z,13.50
2018-08-28T00:15:15.131Z,13.50
2018-08-28T00:15:49.691Z,13.50
2018-08-28T00:16:23.634Z,13.50
2018-08-28T00:16:57.556Z,13.40
2018-08-28T00:17:31.633Z,13.40
2018-08-28T00:18:05.525Z,13.40
2018-08-28T00:18:39.517Z,13.40
2018-08-28T00:19:13.449Z,13.40
2018-08-28T00:19:47.313Z,13.40
2018-08-28T00:20:21.495Z,13.40
2018-08-28T00:20:55.347Z,13.40
2018-08-28T00:21:29.187Z,13.40
2018-08-28T00:22:03.017Z,13.40
2018-08-28T00:22:36.897Z,13.40
2018-08-28T00:23:10.795Z,13.40
2018-08-28T00:23:44.649Z,13.40
2018-08-28T00:24:18.503Z,13.40
2018-08-28T00:24:52.315Z,13.40
2018-08-28T00:25:26.723Z,13.30
2018-08-28T00:26:00.911Z,13.40
2018-08-28T00:26:34.779Z,13.40
2018-08-28T00:27:08.773Z,13.40
2018-08-28T00:27:42.617Z,13.30
2018-08-28T00:28:16.469Z,13.30
2018-08-28T00:28:51.015Z,13.40
2018-08-28T00:29:24.891Z,13.40
2018-08-28T00:29:58.911Z,13.40
2018-08-28T00:30:33.113Z,13.40
2018-08-28T00:31:07.381Z,13.40
2018-08-28T00:31:41.465Z,13.40
2018-08-28T00:32:15.463Z,13.30
2018-08-28T00:32:49.676Z,13.40
2018-08-28T00:33:23.937Z,13.30
2018-08-28T00:33:57.809Z,13.40
2018-08-28T00:34:32.261Z,13.30
2018-08-28T00:35:06.167Z,13.30
2018-08-28T00:35:40.171Z,13.30
2018-08-28T00:36:14.081Z,13.30
2018-08-28T00:36:47.937Z,13.30
2018-08-28T00:37:22.105Z,13.30
2018-08-28T00:37:56.335Z,13.30
2018-08-28T00:38:30.240Z,13.30
2018-08-28T00:39:04.605Z,13.30
2018-08-28T00:39:38.853Z,13.30
2018-08-28T00:40:12.721Z,13.30
2018-08-28T00:40:46.961Z,13.20
2018-08-28T00:41:20.817Z,13.30
2018-08-28T00:41:54.763Z,13.30
2018-08-28T00:42:30.124Z,13.20
2018-08-28T00:43:03.989Z,13.30
2018-08-28T00:43:37.892Z,13.20
2018-08-28T00:44:12.143Z,13.20
2018-08-28T00:44:45.961Z,13.20
2018-08-28T00:45:19.857Z,13.20
2018-08-28T00:45:54.035Z,13.20
2018-08-28T00:46:27.909Z,13.20
2018-08-28T00:47:01.760Z,13.20
2018-08-28T00:47:35.654Z,13.20
2018-08-28T00:48:09.548Z,13.30
2018-08-28T00:48:43.401Z,13.20
2018-08-28T00:49:17.268Z,13.20
2018-08-28T00:49:51.323Z,13.20
2018-08-28T00:50:25.539Z,13.20
2018-08-28T00:50:59.845Z,13.20
2018-08-28T00:51:33.729Z,13.20
2018-08-28T00:52:07.930Z,13.20
2018-08-28T00:52:41.823Z,13.20
2018-08-28T00:53:16.016Z,13.20
2018-08-28T00:53:49.873Z,13.20
2018-08-28T00:54:24.243Z,13.20
2018-08-28T00:54:58.459Z,13.20
2018-08-28T00:55:33.364Z,13.10
2018-08-28T00:59:00.621Z,13.10
2018-08-28T00:59:34.513Z,13.10
2018-08-28T01:00:08.393Z,13.10
2018-08-28T01:00:42.915Z,13.10
2018-08-28T01:01:16.759Z,13.10
2018-08-28T01:01:50.607Z,13.10
2018-08-28T01:02:24.513Z,13.10
2018-08-28T01:02:58.383Z,13.10
2018-08-28T01:03:32.287Z,13.10
2018-08-28T01:04:06.515Z,13.10
2018-08-28T01:05:43.820Z,13.10
2018-08-28T01:06:17.634Z,13.10
2018-08-28T01:06:51.846Z,13.10
2018-08-28T01:07:26.056Z,13.10
2018-08-28T01:08:00.297Z,13.10
2018-08-28T01:08:34.149Z,13.10
2018-08-28T01:09:08.253Z,13.10
2018-08-28T01:09:42.159Z,13.00
2018-08-28T01:10:16.067Z,13.10
2018-08-28T01:10:49.921Z,13.00
2018-08-28T01:11:24.123Z,13.00
2018-08-28T01:11:58.007Z,13.00
2018-08-28T01:12:31.835Z,13.00
2018-08-28T01:13:06.416Z,13.00
2018-08-28T01:13:40.289Z,13.00
2018-08-28T01:14:14.489Z,13.00
2018-08-28T01:14:48.346Z,13.00
2018-08-28T01:15:22.519Z,13.00
2018-08-28T01:15:56.755Z,13.00
2018-08-28T01:16:30.599Z,13.00
2018-08-28T01:17:04.473Z,13.00
2018-08-28T01:17:38.353Z,13.00
2018-08-28T01:18:12.237Z,13.00
2018-08-28T01:18:46.483Z,13.00
2018-08-28T01:19:20.419Z,13.00
2018-08-28T01:19:54.593Z,13.00
2018-08-28T01:20:28.509Z,13.00
2018-08-28T01:21:02.767Z,13.00
2018-08-28T01:21:36.659Z,13.00
2018-08-28T01:22:10.605Z,13.00
2018-08-28T01:22:44.517Z,13.00
2018-08-28T01:23:18.449Z,13.00
2018-08-28T01:23:52.358Z,13.00
2018-08-28T01:24:26.220Z,13.00
2018-08-28T01:25:00.463Z,13.00
2018-08-28T01:25:34.797Z,13.00
2018-08-28T01:26:09.371Z,13.00
2018-08-28T01:26:43.245Z,13.00
2018-08-28T01:27:17.181Z,13.00
2018-08-28T01:27:51.049Z,13.00
2018-08-28T01:28:24.945Z,13.00
2018-08-28T01:28:59.151Z,13.00
2018-08-28T01:29:33.044Z,13.00
2018-08-28T01:30:07.069Z,13.00
2018-08-28T01:30:40.937Z,13.00
2018-08-28T01:31:15.151Z,13.00
2018-08-28T01:31:49.030Z,13.00
2018-08-28T01:32:22.895Z,13.00
2018-08-28T01:32:57.075Z,13.00
2018-08-28T01:33:30.942Z,13.00
2018-08-28T01:34:04.785Z,13.00
2018-08-28T01:34:38.636Z,13.00
2018-08-28T01:35:12.487Z,13.00
2018-08-28T01:35:46.680Z,13.00
2018-08-28T01:36:20.569Z,13.00
2018-08-28T01:36:54.413Z,13.00
2018-08-28T01:37:28.283Z,13.00
2018-08-28T01:38:02.165Z,13.00
2018-08-28T01:38:36.009Z,13.00
2018-08-28T01:39:09.914Z,13.00
2018-08-28T01:39:43.757Z,13.00
2018-08-28T01:40:17.649Z,13.00
2018-08-28T01:40:51.537Z,13.00
2018-08-28T01:41:25.363Z,13.00
2018-08-28T01:41:59.205Z,13.00
2018-08-28T01:42:33.053Z,13.00
2018-08-28T01:43:12.316Z,13.00
2018-08-28T01:43:46.211Z,13.00
2018-08-28T01:44:20.133Z,13.00
2018-08-28T01:44:54.031Z,13.00
2018-08-28T01:45:27.983Z,13.00
2018-08-28T01:46:01.865Z,13.00
2018-08-28T01:46:35.719Z,12.90
2018-08-28T01:47:09.599Z,13.00
2018-08-28T01:47:43.475Z,13.00
2018-08-28T01:48:17.320Z,12.90
2018-08-28T01:48:51.214Z,12.90
2018-08-28T01:49:25.045Z,13.00
2018-08-28T01:49:58.906Z,12.90
2018-08-28T01:50:32.791Z,12.90
2018-08-28T01:51:06.761Z,12.90
2018-08-28T01:51:40.943Z,12.90
2018-08-28T01:52:14.858Z,12.90
2018-08-28T01:52:48.718Z,12.90
2018-08-28T01:53:22.695Z,12.90
2018-08-28T01:53:56.563Z,12.90
2018-08-28T01:54:30.437Z,12.90
2018-08-28T01:55:04.655Z,12.90
2018-08-28T01:55:38.476Z,12.90
2018-08-28T01:56:12.836Z,12.90
2018-08-28T01:56:46.734Z,12.90
2018-08-28T01:57:20.641Z,12.90
2018-08-28T01:57:54.831Z,12.90
2018-08-28T01:58:28.697Z,12.90
2018-08-28T01:59:02.592Z,12.90
2018-08-28T01:59:36.450Z,12.90
2018-08-28T02:00:10.657Z,12.90
2018-08-28T02:00:44.616Z,12.90
2018-08-28T02:01:18.608Z,12.90
2018-08-28T02:01:52.467Z,12.90
2018-08-28T02:02:26.473Z,12.90
2018-08-28T02:03:00.390Z,12.90
2018-08-28T02:03:34.255Z,12.90
2018-08-28T02:04:08.373Z,12.90
2018-08-28T02:04:42.259Z,12.90
2018-08-28T02:05:16.205Z,12.90
2018-08-28T02:05:50.096Z,12.90
2018-08-28T02:06:23.994Z,12.90
2018-08-28T02:06:58.186Z,12.90
2018-08-28T02:07:32.076Z,12.90
2018-08-28T02:08:06.323Z,12.90
2018-08-28T02:08:40.198Z,12.90
2018-08-28T02:09:14.088Z,12.90
2018-08-28T02:09:48.055Z,12.90
2018-08-28T02:10:21.996Z,12.90
2018-08-28T02:10:55.811Z,12.90
2018-08-28T02:11:30.460Z,12.90
2018-08-28T02:12:04.322Z,13.00
2018-08-28T02:12:38.259Z,12.90
2018-08-28T02:13:12.233Z,12.90
2018-08-28T02:13:46.225Z,13.00
2018-08-28T02:14:20.132Z,12.90
2018-08-28T02:14:54.028Z,12.90
2018-08-28T02:15:27.921Z,13.00
2018-08-28T02:16:02.292Z,13.00
2018-08-28T02:16:36.239Z,13.00
2018-08-28T02:17:10.133Z,13.00
2018-08-28T02:17:43.990Z,13.00
2018-08-28T02:18:18.014Z,13.00
2018-08-28T02:18:51.884Z,13.00
2018-08-28T02:19:25.733Z,13.00
2018-08-28T02:19:59.651Z,13.00
2018-08-28T02:20:33.541Z,13.00
2018-08-28T02:21:07.740Z,13.10
2018-08-28T02:21:41.637Z,13.10
2018-08-28T02:22:15.726Z,13.10
2018-08-28T02:22:49.623Z,13.10
2018-08-28T02:23:23.520Z,13.10
2018-08-28T02:23:57.418Z,13.10
2018-08-28T02:24:31.278Z,13.10
2018-08-28T02:25:06.025Z,13.10
2018-08-28T02:25:39.858Z,13.10
2018-08-28T02:26:13.727Z,13.10
2018-08-28T02:26:47.621Z,13.10
2018-08-28T02:27:21.550Z,13.20
2018-08-28T02:27:55.397Z,13.20
2018-08-28T02:28:29.255Z,13.20
2018-08-28T02:29:03.117Z,13.20
2018-08-28T02:29:36.980Z,13.20
2018-08-28T02:30:10.873Z,13.20
2018-08-28T02:30:44.781Z,13.20
2018-08-28T02:31:18.995Z,13.20
2018-08-28T02:31:52.943Z,13.20
2018-08-28T02:32:26.839Z,13.20
2018-08-28T02:33:00.716Z,13.30
2018-08-28T02:33:34.630Z,13.30
2018-08-28T02:34:08.654Z,13.30
2018-08-28T02:34:42.556Z,13.30
2018-08-28T02:35:16.436Z,13.30
2018-08-28T02:35:50.306Z,13.30
2018-08-28T02:36:24.158Z,13.30
2018-08-28T02:36:58.058Z,13.30
2018-08-28T02:37:31.949Z,13.30
2018-08-28T02:38:06.157Z,13.40
2018-08-28T02:38:40.029Z,13.40
2018-08-28T02:39:14.592Z,13.40
2018-08-28T02:39:48.466Z,13.40
2018-08-28T02:40:22.677Z,13.40
2018-08-28T02:40:56.600Z,13.40
2018-08-28T02:41:31.180Z,13.40
2018-08-28T02:42:05.525Z,13.40
2018-08-28T02:42:39.721Z,13.50
2018-08-28T02:43:13.597Z,13.50
2018-08-28T02:43:47.850Z,13.50
2018-08-28T02:44:22.078Z,13.50
2018-08-28T02:44:55.991Z,13.50
2018-08-28T02:45:31.232Z,13.50
2018-08-28T02:46:05.465Z,13.50
2018-08-28T02:46:39.351Z,13.50
2018-08-28T02:47:13.263Z,13.50
2018-08-28T02:47:47.125Z,13.50
2018-08-28T02:48:21.066Z,13.50
2018-08-28T02:48:54.962Z,13.50
2018-08-28T02:49:28.873Z,13.50
2018-08-28T02:50:02.814Z,13.50
2018-08-28T02:50:36.697Z,13.60
2018-08-28T02:51:10.565Z,13.60
2018-08-28T02:51:44.444Z,13.60
2018-08-28T02:52:18.364Z,13.60
2018-08-28T02:52:52.216Z,13.60
2018-08-28T02:53:26.439Z,13.60
2018-08-28T02:54:00.344Z,13.60
2018-08-28T02:54:34.250Z,13.60
2018-08-28T02:55:08.102Z,13.60
2018-08-28T02:55:41.974Z,13.60
2018-08-28T02:56:15.922Z,13.60
2018-08-28T02:56:49.935Z,13.60
2018-08-28T02:57:23.798Z,13.60
2018-08-28T02:57:57.648Z,13.60
2018-08-28T02:58:31.490Z,13.60
2018-08-28T02:59:05.833Z,13.60
2018-08-28T02:59:39.657Z,13.60
2018-08-28T03:00:13.540Z,13.70
2018-08-28T03:00:47.401Z,13.70
2018-08-28T03:01:21.602Z,13.70
2018-08-28T03:01:55.447Z,13.70
2018-08-28T03:02:29.660Z,13.70
2018-08-28T03:03:03.910Z,13.70
2018-08-28T03:03:37.906Z,13.70
2018-08-28T03:04:12.114Z,13.70
2018-08-28T03:04:46.321Z,13.70
2018-08-28T03:05:20.189Z,13.70
2018-08-28T03:05:54.032Z,13.70
2018-08-28T03:06:28.201Z,13.70
2018-08-28T03:07:02.103Z,13.70
2018-08-28T03:07:36.328Z,13.70
2018-08-28T03:08:10.298Z,13.70
2018-08-28T03:08:44.175Z,13.70
2018-08-28T03:09:18.206Z,13.70
2018-08-28T03:09:52.121Z,13.70
2018-08-28T03:10:26.145Z,13.70
2018-08-28T03:11:00.019Z,13.70
2018-08-28T03:11:33.906Z,13.70
2018-08-28T03:12:07.934Z,13.70
2018-08-28T03:12:42.142Z,13.70
2018-08-28T03:13:16.001Z,13.70
2018-08-28T03:13:49.854Z,13.70
2018-08-28T03:14:23.892Z,13.70
2018-08-28T03:14:57.793Z,13.70
2018-08-28T03:15:32.071Z,13.70
2018-08-28T03:16:06.161Z,13.70
2018-08-28T03:16:40.147Z,13.70
2018-08-28T03:17:14.013Z,13.70
2018-08-28T03:17:48.128Z,13.70
2018-08-28T03:18:21.986Z,13.70
2018-08-28T03:18:55.885Z,13.70
2018-08-28T03:19:30.608Z,13.70
2018-08-28T03:20:04.806Z,13.70
2018-08-28T03:20:38.704Z,13.70
2018-08-28T03:21:12.616Z,13.70
2018-08-28T03:21:46.797Z,13.70
2018-08-28T03:22:20.632Z,13.70
2018-08-28T03:22:54.535Z,13.70
2018-08-28T03:23:28.373Z,13.70
2018-08-28T03:24:02.224Z,13.70
2018-08-28T03:24:36.074Z,13.70
2018-08-28T03:25:09.911Z,13.70
2018-08-28T03:25:43.803Z,13.70
2018-08-28T03:26:17.646Z,13.70
2018-08-28T03:26:51.511Z,13.70
2018-08-28T03:27:25.712Z,13.70
2018-08-28T03:27:59.621Z,13.70
2018-08-28T03:28:33.465Z,13.70
2018-08-28T03:29:07.475Z,13.70
2018-08-28T03:29:41.512Z,13.70
2018-08-28T03:30:15.404Z,13.70
2018-08-28T03:30:49.547Z,13.60
2018-08-28T03:31:23.844Z,13.60
2018-08-28T03:31:57.684Z,13.60
2018-08-28T03:32:31.540Z,13.60
2018-08-28T03:33:05.456Z,13.60
2018-08-28T03:33:39.300Z,13.60
2018-08-28T03:34:13.137Z,13.60
2018-08-28T03:34:47.025Z,13.50
2018-08-28T03:35:20.942Z,13.50
2018-08-28T03:35:54.837Z,13.50
2018-08-28T03:36:28.756Z,13.50
2018-08-28T03:37:03.074Z,13.50
2018-08-28T03:37:36.958Z,13.40
2018-08-28T03:38:10.872Z,13.40
2018-08-28T03:38:44.699Z,13.40
2018-08-28T03:39:18.657Z,13.40
2018-08-28T03:39:52.728Z,13.40
2018-08-28T03:40:26.587Z,13.30
2018-08-28T03:41:00.430Z,13.30
2018-08-28T03:41:34.261Z,13.30
2018-08-28T03:42:08.122Z,13.30
2018-08-28T03:42:41.968Z,13.30
2018-08-28T03:43:15.832Z,13.30
2018-08-28T03:43:49.683Z,13.30
2018-08-28T03:44:23.531Z,13.30
2018-08-28T03:44:57.411Z,13.20
2018-08-28T03:45:31.490Z,13.20
2018-08-28T03:46:05.362Z,13.20
2018-08-28T03:46:39.220Z,13.20
2018-08-28T03:47:13.462Z,13.20
2018-08-28T03:47:47.286Z,13.20
2018-08-28T03:48:21.270Z,13.20
2018-08-28T03:48:55.286Z,13.20
2018-08-28T03:49:29.315Z,13.20
2018-08-28T03:50:03.228Z,13.20
2018-08-28T03:50:37.435Z,13.20
2018-08-28T03:51:11.314Z,13.20
2018-08-28T03:51:45.271Z,13.10
2018-08-28T03:52:19.453Z,13.10
2018-08-28T03:52:53.315Z,13.10
2018-08-28T03:53:27.502Z,13.10
2018-08-28T03:54:01.336Z,13.10
2018-08-28T03:54:35.199Z,13.10
2018-08-28T03:55:09.368Z,13.10
2018-08-28T03:55:43.532Z,13.10
2018-08-28T03:56:17.394Z,13.10
2018-08-28T03:56:51.614Z,13.10
2018-08-28T03:57:25.462Z,13.10
2018-08-28T03:57:59.344Z,13.10
2018-08-28T03:58:33.718Z,13.00
2018-08-28T03:59:07.548Z,13.10
2018-08-28T03:59:41.462Z,13.10
2018-08-28T04:00:15.307Z,13.00
2018-08-28T04:00:49.198Z,13.00
2018-08-28T04:01:23.057Z,13.00
2018-08-28T04:01:57.240Z,13.00
2018-08-28T04:02:31.041Z,13.10
2018-08-28T04:03:05.235Z,13.10
2018-08-28T04:03:39.157Z,13.10
2018-08-28T04:04:13.669Z,13.10
2018-08-28T04:04:47.674Z,13.10
2018-08-28T04:05:22.097Z,13.10
2018-08-28T04:05:56.016Z,13.10
2018-08-28T04:06:29.910Z,13.20
2018-08-28T04:07:04.104Z,13.20
2018-08-28T04:07:38.000Z,13.20
2018-08-28T04:08:11.884Z,13.20
2018-08-28T04:08:45.774Z,13.20
2018-08-28T04:09:19.970Z,13.20
2018-08-28T04:09:53.862Z,13.20
2018-08-28T04:10:28.498Z,13.20
2018-08-28T04:11:02.706Z,13.30
2018-08-28T04:11:36.562Z,13.30
2018-08-28T04:12:10.486Z,13.30
2018-08-28T04:12:44.387Z,13.30
2018-08-28T04:13:18.266Z,13.30
2018-08-28T04:13:52.139Z,13.30
2018-08-28T04:14:25.976Z,13.30
2018-08-28T04:14:59.844Z,13.30
2018-08-28T04:15:33.706Z,13.30
2018-08-28T04:16:07.992Z,13.30
2018-08-28T04:16:42.262Z,13.30
2018-08-28T04:17:16.484Z,13.40
2018-08-28T04:17:51.061Z,13.40
2018-08-28T04:18:24.947Z,13.40
2018-08-28T04:18:58.837Z,13.40
2018-08-28T04:19:33.070Z,13.40
2018-08-28T04:20:07.325Z,13.40
2018-08-28T04:20:41.538Z,13.50
2018-08-28T04:21:15.458Z,13.50
2018-08-28T04:21:49.683Z,13.50
2018-08-28T04:22:23.930Z,13.50
2018-08-28T04:22:58.036Z,13.50
2018-08-28T04:23:31.878Z,13.50
2018-08-28T04:24:05.757Z,13.50
2018-08-28T04:24:39.625Z,13.50
2018-08-28T04:25:13.642Z,13.50
2018-08-28T04:25:47.497Z,13.50
2018-08-28T04:26:21.924Z,13.50
2018-08-28T04:26:55.777Z,13.60
2018-08-28T04:27:29.665Z,13.60
2018-08-28T04:28:03.532Z,13.60
2018-08-28T04:28:37.434Z,13.60
2018-08-28T04:29:11.317Z,13.60
2018-08-28T04:29:45.145Z,13.60
2018-08-28T04:30:19.005Z,13.60
2018-08-28T04:30:52.933Z,13.60
2018-08-28T04:31:27.283Z,13.60
2018-08-28T04:32:01.150Z,13.60
2018-08-28T04:32:35.352Z,13.60
2018-08-28T04:33:09.236Z,13.70
2018-08-28T04:33:43.096Z,13.70
2018-08-28T04:34:16.980Z,13.70
2018-08-28T04:34:50.928Z,13.70
2018-08-28T04:35:24.778Z,13.70
2018-08-28T04:35:58.673Z,13.70
2018-08-28T04:36:32.572Z,13.70
2018-08-28T04:37:07.123Z,13.70
2018-08-28T04:37:40.955Z,13.70
2018-08-28T04:38:14.811Z,13.80
2018-08-28T04:38:48.713Z,13.80
2018-08-28T04:39:22.576Z,13.80
2018-08-28T04:39:56.945Z,13.80
2018-08-28T04:40:30.815Z,13.80
2018-08-28T04:41:05.031Z,13.90
2018-08-28T04:41:38.857Z,13.90
2018-08-28T04:42:12.734Z,13.90
2018-08-28T04:42:46.919Z,13.90
2018-08-28T04:43:20.759Z,14.00
2018-08-28T04:43:54.637Z,14.00
2018-08-28T04:44:28.653Z,14.00
2018-08-28T04:45:03.141Z,14.00
2018-08-28T04:45:37.501Z,14.10
2018-08-28T04:46:11.665Z,14.10
2018-08-28T04:46:45.533Z,14.10
2018-08-28T04:47:19.392Z,14.10
2018-08-28T04:47:53.241Z,14.10
2018-08-28T04:48:27.321Z,14.00
2018-08-28T04:49:01.297Z,14.10
2018-08-28T04:49:35.369Z,14.10
2018-08-28T04:50:09.619Z,14.00
2018-08-28T04:50:43.900Z,14.00
2018-08-28T04:51:18.109Z,14.00
2018-08-28T04:51:51.991Z,14.00
2018-08-28T04:52:25.821Z,14.00
2018-08-28T04:53:00.055Z,14.00
2018-08-28T04:53:33.953Z,14.00
2018-08-28T04:54:08.303Z,14.00
2018-08-28T04:54:42.334Z,14.00
2018-08-28T04:55:16.173Z,14.00
2018-08-28T04:55:50.010Z,13.90
2018-08-28T04:56:23.877Z,13.90
2018-08-28T04:56:57.849Z,13.90
2018-08-28T04:57:32.010Z,13.90
2018-08-28T04:58:10.111Z,13.90
2018-08-28T04:58:44.053Z,13.90
2018-08-28T04:59:18.042Z,13.90
2018-08-28T04:59:52.009Z,13.90
2018-08-28T05:00:26.201Z,13.90
2018-08-28T05:01:00.037Z,13.90
2018-08-28T05:01:33.907Z,13.90
2018-08-28T05:02:08.457Z,13.90
2018-08-28T05:02:42.645Z,13.90
2018-08-28T05:03:17.333Z,13.90
2018-08-28T05:03:51.623Z,13.90
2018-08-28T05:04:25.477Z,13.90
2018-08-28T05:05:00.575Z,13.90
2018-08-28T05:05:34.423Z,13.90
2018-08-28T05:06:08.289Z,13.90
2018-08-28T05:06:42.140Z,13.90
2018-08-28T05:07:15.999Z,13.90
2018-08-28T05:07:49.941Z,14.00
2018-08-28T05:08:24.195Z,13.90
2018-08-28T05:08:58.103Z,14.00
2018-08-28T05:09:32.007Z,14.00
2018-08-28T05:10:06.662Z,14.00
2018-08-28T05:10:40.902Z,14.00
2018-08-28T05:11:14.757Z,14.00
2018-08-28T05:11:48.674Z,14.00
2018-08-28T05:12:22.708Z,14.00
2018-08-28T05:12:56.581Z,14.10
2018-08-28T05:13:30.447Z,14.10
2018-08-28T05:14:04.468Z,14.10
2018-08-28T05:14:38.352Z,14.10
2018-08-28T05:15:12.184Z,14.10
2018-08-28T05:15:46.178Z,14.20
2018-08-28T05:16:20.542Z,14.20
2018-08-28T05:16:54.573Z,14.30
2018-08-28T05:17:28.519Z,14.30
2018-08-28T05:18:02.676Z,14.30
2018-08-28T05:18:36.556Z,14.40
2018-08-28T05:19:10.593Z,14.40
2018-08-28T05:19:44.626Z,14.50
2018-08-28T05:20:18.494Z,14.50
2018-08-28T05:20:52.463Z,14.50
2018-08-28T05:21:26.312Z,14.60
2018-08-28T05:22:00.170Z,14.60
2018-08-28T05:22:34.353Z,14.60
2018-08-28T05:23:08.915Z,14.70
2018-08-28T05:23:42.814Z,14.70
2018-08-28T05:24:16.724Z,14.80
2018-08-28T05:24:50.914Z,14.80
2018-08-28T05:25:24.820Z,14.90
2018-08-28T05:25:59.100Z,14.90
2018-08-28T05:26:33.040Z,15.00
2018-08-28T05:27:06.942Z,15.00
2018-08-28T05:27:40.757Z,15.10
2018-08-28T05:28:14.646Z,15.10
2018-08-28T05:28:48.677Z,15.20
2018-08-28T05:29:22.637Z,15.20
2018-08-28T05:29:56.746Z,15.30
2018-08-28T05:30:30.718Z,15.30
2018-08-28T05:31:04.731Z,15.40
2018-08-28T05:31:38.934Z,15.40
2018-08-28T05:32:13.169Z,15.40
2018-08-28T05:32:47.083Z,15.50
2018-08-28T05:33:20.978Z,15.50
2018-08-28T05:33:54.822Z,15.50
2018-08-28T05:34:28.750Z,15.60
2018-08-28T05:35:02.990Z,15.60
2018-08-28T05:35:36.878Z,15.60
2018-08-28T05:36:10.758Z,15.60
2018-08-28T05:36:44.731Z,15.60
2018-08-28T05:37:18.613Z,15.60
2018-08-28T05:37:52.512Z,15.70
2018-08-28T05:38:26.553Z,15.70
2018-08-28T05:39:00.482Z,15.70
2018-08-28T05:39:34.408Z,15.70
2018-08-28T05:40:08.946Z,15.80
2018-08-28T05:40:42.836Z,15.80
2018-08-28T05:41:16.733Z,15.80
2018-08-28T05:41:50.624Z,15.80
2018-08-28T05:42:24.492Z,15.80
2018-08-28T05:42:58.404Z,15.90
2018-08-28T05:43:33.120Z,15.90
2018-08-28T05:44:07.320Z,15.90
2018-08-28T05:44:41.230Z,15.90
2018-08-28T05:45:15.118Z,15.90
2018-08-28T05:45:49.022Z,15.90
2018-08-28T05:46:23.480Z,16.00
2018-08-28T05:46:58.337Z,16.00
2018-08-28T05:47:33.066Z,16.00
2018-08-28T05:48:06.950Z,16.00
2018-08-28T05:48:40.822Z,16.00
2018-08-28T05:49:14.683Z,16.00
2018-08-28T05:49:48.902Z,16.00
2018-08-28T05:50:23.107Z,16.10
2018-08-28T05:50:57.342Z,16.10
2018-08-28T05:51:31.201Z,16.10
2018-08-28T05:52:05.069Z,16.10
2018-08-28T05:52:38.992Z,16.10
2018-08-28T05:53:12.886Z,16.10
2018-08-28T05:53:46.768Z,16.10
2018-08-28T05:54:21.014Z,16.20
2018-08-28T05:54:54.963Z,16.20
2018-08-28T05:55:29.397Z,16.20
2018-08-28T05:56:03.703Z,16.20
2018-08-28T05:56:37.745Z,16.30
2018-08-28T05:57:11.683Z,16.30
2018-08-28T05:57:46.520Z,16.30
2018-08-28T05:58:20.448Z,16.30
2018-08-28T05:58:54.976Z,16.30
2018-08-28T05:59:28.802Z,16.30
2018-08-28T06:00:03.034Z,16.30
2018-08-28T06:00:36.947Z,16.30
2018-08-28T06:01:10.786Z,16.30
2018-08-28T06:01:44.648Z,16.30
2018-08-28T06:02:18.554Z,16.30
2018-08-28T06:02:52.538Z,16.30
2018-08-28T06:03:27.186Z,16.30
2018-08-28T06:04:01.152Z,16.30
2018-08-28T06:04:35.049Z,16.30
2018-08-28T06:05:09.318Z,16.20
2018-08-28T06:05:43.703Z,16.30
2018-08-28T06:06:18.327Z,16.30
2018-08-28T06:06:52.233Z,16.30
2018-08-28T06:07:26.215Z,16.30
2018-08-28T06:08:00.143Z,16.20
2018-08-28T06:08:34.031Z,16.20
2018-08-28T06:09:08.511Z,16.20
2018-08-28T06:09:42.394Z,16.20
2018-08-28T06:10:16.327Z,16.10
2018-08-28T06:10:50.186Z,16.10
2018-08-28T06:11:24.058Z,16.10
2018-08-28T06:11:57.961Z,16.00
2018-08-28T06:12:31.913Z,16.00
2018-08-28T06:13:06.104Z,16.00
2018-08-28T06:13:40.006Z,16.00
2018-08-28T06:14:13.870Z,16.00
2018-08-28T06:14:48.112Z,16.00
2018-08-28T06:15:22.918Z,16.00
2018-08-28T06:15:56.814Z,16.00
2018-08-28T06:16:31.010Z,16.00
2018-08-28T06:17:05.138Z,16.00
2018-08-28T06:17:39.505Z,16.00
2018-08-28T06:18:13.352Z,16.00
2018-08-28T06:18:47.225Z,16.10
2018-08-28T06:19:21.450Z,16.10
2018-08-28T06:19:55.320Z,16.10
2018-08-28T06:20:29.565Z,16.10
2018-08-28T06:21:03.412Z,16.10
2018-08-28T06:21:37.263Z,16.10
2018-08-28T06:22:11.525Z,16.20
2018-08-28T06:22:45.357Z,16.20
2018-08-28T06:23:19.197Z,16.20
2018-08-28T06:23:53.070Z,16.30
2018-08-28T06:24:26.978Z,16.30
2018-08-28T06:25:01.197Z,16.40
2018-08-28T06:25:35.074Z,16.40
2018-08-28T06:26:09.713Z,16.50
2018-08-28T06:26:43.766Z,16.50
2018-08-28T06:27:17.646Z,16.60
2018-08-28T06:27:51.552Z,16.70
2018-08-28T06:28:25.379Z,16.70
2018-08-28T06:28:59.254Z,16.70
2018-08-28T06:29:33.070Z,16.70
2018-08-28T06:30:07.280Z,16.80
2018-08-28T06:30:41.180Z,16.90
2018-08-28T06:31:15.004Z,16.90
2018-08-28T06:31:48.844Z,16.90
2018-08-28T06:32:22.701Z,16.90
2018-08-28T06:32:56.544Z,17.00
2018-08-28T06:33:31.300Z,17.00
2018-08-28T06:34:05.280Z,17.00
2018-08-28T06:34:39.600Z,17.00
2018-08-28T06:35:13.462Z,17.00
2018-08-28T06:35:47.375Z,17.00
2018-08-28T06:36:21.582Z,17.00
2018-08-28T06:36:55.610Z,17.00
2018-08-28T06:37:29.509Z,17.00
2018-08-28T06:38:03.652Z,17.00
2018-08-28T06:38:37.498Z,17.00
2018-08-28T06:39:11.484Z,16.90
2018-08-28T06:39:45.354Z,16.90
2018-08-28T06:40:19.232Z,16.90
2018-08-28T06:40:53.084Z,16.90
2018-08-28T06:41:26.958Z,16.90
2018-08-28T06:42:01.005Z,16.90
2018-08-28T06:42:35.196Z,16.80
2018-08-28T06:43:09.056Z,16.80
2018-08-28T06:43:42.953Z,16.80
2018-08-28T06:44:17.004Z,16.80
2018-08-28T06:44:51.054Z,16.70
2018-08-28T06:45:26.036Z,16.70
2018-08-28T06:45:59.984Z,16.70
2018-08-28T06:46:33.868Z,16.70
2018-08-28T06:47:08.049Z,16.60
2018-08-28T06:47:41.910Z,16.60
2018-08-28T06:48:15.717Z,16.60
2018-08-28T06:48:49.548Z,16.60
2018-08-28T06:49:23.496Z,16.60
2018-08-28T06:49:57.505Z,16.60
2018-08-28T06:50:31.386Z,16.60
2018-08-28T06:51:05.946Z,16.60
2018-08-28T06:51:40.166Z,16.60
2018-08-28T06:52:14.042Z,16.60
2018-08-28T06:52:47.897Z,16.70
2018-08-28T06:53:21.946Z,16.70
2018-08-28T06:53:55.776Z,16.70
2018-08-28T06:54:29.672Z,16.70
2018-08-28T06:55:03.548Z,16.70
2018-08-28T06:55:38.082Z,16.70
2018-08-28T06:56:11.977Z,16.70
2018-08-28T06:56:45.904Z,16.80
2018-08-28T06:57:20.260Z,16.70
2018-08-28T06:57:54.416Z,16.80
2018-08-28T06:58:28.270Z,16.80
2018-08-28T06:59:02.488Z,16.80
2018-08-28T06:59:36.339Z,16.80
2018-08-28T07:00:10.890Z,16.80
2018-08-28T07:00:44.768Z,16.90
2018-08-28T07:01:18.673Z,16.90
2018-08-28T07:01:52.912Z,16.90
2018-08-28T07:02:26.829Z,16.90
2018-08-28T07:03:00.825Z,16.90
2018-08-28T07:03:34.673Z,17.00
2018-08-28T07:04:08.543Z,17.00
2018-08-28T07:04:42.422Z,17.00
2018-08-28T07:05:16.314Z,17.00
2018-08-28T07:05:50.176Z,17.00
2018-08-28T07:06:24.112Z,17.10
2018-08-28T07:06:58.007Z,17.10
2018-08-28T07:07:32.553Z,17.20
2018-08-28T07:08:06.443Z,17.20
2018-08-28T07:08:40.465Z,17.20
2018-08-28T07:09:14.420Z,17.30
2018-08-28T07:09:48.302Z,17.30
2018-08-28T07:10:22.494Z,17.30
2018-08-28T07:10:56.611Z,17.30
2018-08-28T07:11:30.490Z,17.40
2018-08-28T07:12:04.708Z,17.40
2018-08-28T07:12:38.914Z,17.40
2018-08-28T07:13:12.786Z,17.40
2018-08-28T07:13:46.623Z,17.40
2018-08-28T07:14:20.480Z,17.40
2018-08-28T07:14:54.496Z,17.50
2018-08-28T07:15:28.460Z,17.50
2018-08-28T07:18:35.028Z,17.50
2018-08-28T07:19:09.092Z,17.50
2018-08-28T07:19:43.872Z,17.50
2018-08-28T07:20:18.386Z,17.50
2018-08-28T07:20:52.581Z,17.50
2018-08-28T07:21:26.802Z,17.50
2018-08-28T07:22:00.652Z,17.50
2018-08-28T07:22:34.519Z,17.50
2018-08-28T07:23:08.436Z,17.50
2018-08-28T07:23:42.279Z,17.50
2018-08-28T07:24:16.168Z,17.40
2018-08-28T07:24:50.380Z,17.40